Memphis (MEM/KMEM)

Information

Location
Memphis, TN
Local Time
20:50 / 8:50 pm
GMT Time
01:50 / 1:50 am
Gates
C22
No FAA reported delays
METAR KMEM 270054Z 33007KT 10SM FEW060 SCT250 27/15 A3007 RMK AO2 SLP178 T02670150 $
TAF KMEM 262327Z 2700/2724 33008KT P6SM SCT050 SCT250 FM270100 VRB03KT P6SM BKN100 FM270800 03004KT P6SM VCSH BKN060 FM271200 05005KT P6SM BKN060 FM271600 04007KT P6SM SCT060